sensor_id;sensor_type;location;lat;lon;timestamp;pressure;altitude;pressure_sealevel;temperature;humidity
44988;BME280;35735;52.226;21.254;2023-07-08T00:01:45;100889.59;;;14.07;100.00
44988;BME280;35735;52.226;21.254;2023-07-08T00:06:45;100886.94;;;14.01;100.00
44988;BME280;35735;52.226;21.254;2023-07-08T00:11:46;100889.66;;;13.98;100.00
44988;BME280;35735;52.226;21.254;2023-07-08T00:16:47;100895.09;;;13.98;100.00
44988;BME280;35735;52.226;21.254;2023-07-08T00:21:48;100895.19;;;13.84;100.00
44988;BME280;35735;52.226;21.254;2023-07-08T00:26:50;100898.84;;;13.75;100.00
44988;BME280;35735;52.226;21.254;2023-07-08T00:31:50;100898.88;;;13.72;100.00
44988;BME280;35735;52.226;21.254;2023-07-08T00:36:51;100898.91;;;13.63;100.00
44988;BME280;35735;52.226;21.254;2023-07-08T00:41:52;100897.13;;;13.62;100.00
44988;BME280;35735;52.226;21.254;2023-07-08T00:47:04;100893.53;;;13.57;100.00
44988;BME280;35735;52.226;21.254;2023-07-08T00:52:35;100889.06;;;13.40;100.00
44988;BME280;35735;52.226;21.254;2023-07-08T00:57:39;100893.59;;;13.26;100.00
44988;BME280;35735;52.226;21.254;2023-07-08T01:02:45;100891.78;;;13.31;100.00
44988;BME280;35735;52.226;21.254;2023-07-08T01:07:52;100882.75;;;13.26;100.00
44988;BME280;35735;52.226;21.254;2023-07-08T01:12:58;100883.69;;;13.23;100.00
44988;BME280;35735;52.226;21.254;2023-07-08T01:18:01;100881.88;;;13.13;100.00
44988;BME280;35735;52.226;21.254;2023-07-08T01:23:03;100883.69;;;13.22;100.00
44988;BME280;35735;52.226;21.254;2023-07-08T01:28:04;100885.53;;;13.15;100.00
44988;BME280;35735;52.226;21.254;2023-07-08T01:33:09;100886.44;;;13.06;100.00
44988;BME280;35735;52.226;21.254;2023-07-08T01:38:18;100891.88;;;12.98;100.00
44988;BME280;35735;52.226;21.254;2023-07-08T01:43:23;100882.81;;;13.01;100.00
44988;BME280;35735;52.226;21.254;2023-07-08T01:48:24;100894.59;;;12.92;100.00
44988;BME280;35735;52.226;21.254;2023-07-08T01:53:36;100891.94;;;12.72;100.00
44988;BME280;35735;52.226;21.254;2023-07-08T01:58:38;100894.63;;;12.72;100.00
44988;BME280;35735;52.226;21.254;2023-07-08T02:03:39;100889.22;;;12.71;100.00
44988;BME280;35735;52.226;21.254;2023-07-08T02:08:40;100891.94;;;12.63;100.00
44988;BME280;35735;52.226;21.254;2023-07-08T02:13:40;100891.03;;;12.59;100.00
44988;BME280;35735;52.226;21.254;2023-07-08T02:18:41;100894.66;;;12.54;100.00
44988;BME280;35735;52.226;21.254;2023-07-08T02:23:41;100884.72;;;12.62;100.00
44988;BME280;35735;52.226;21.254;2023-07-08T02:28:43;100881.13;;;12.65;100.00
44988;BME280;35735;52.226;21.254;2023-07-08T02:33:44;100882.00;;;12.59;100.00
44988;BME280;35735;52.226;21.254;2023-07-08T02:38:45;100882.91;;;12.47;100.00
44988;BME280;35735;52.226;21.254;2023-07-08T02:43:45;100884.75;;;12.44;100.00
44988;BME280;35735;52.226;21.254;2023-07-08T02:48:46;100875.69;;;12.31;100.00
44988;BME280;35735;52.226;21.254;2023-07-08T02:53:48;100885.63;;;12.21;100.00
44988;BME280;35735;52.226;21.254;2023-07-08T02:58:49;100884.72;;;12.22;100.00
44988;BME280;35735;52.226;21.254;2023-07-08T03:03:50;100882.91;;;12.21;100.00
44988;BME280;35735;52.226;21.254;2023-07-08T03:08:50;100885.63;;;12.19;100.00
44988;BME280;35735;52.226;21.254;2023-07-08T03:13:51;100885.63;;;12.15;100.00
44988;BME280;35735;52.226;21.254;2023-07-08T03:18:52;100886.53;;;12.14;100.00
44988;BME280;35735;52.226;21.254;2023-07-08T03:23:52;100893.75;;;12.18;100.00
44988;BME280;35735;52.226;21.254;2023-07-08T03:28:53;100888.31;;;12.21;100.00
44988;BME280;35735;52.226;21.254;2023-07-08T03:33:53;100894.66;;;12.32;100.00
44988;BME280;35735;52.226;21.254;2023-07-08T03:38:58;100894.66;;;12.49;100.00
44988;BME280;35735;52.226;21.254;2023-07-08T03:43:59;100890.09;;;12.73;100.00
44988;BME280;35735;52.226;21.254;2023-07-08T03:48:59;100884.66;;;13.02;100.00
44988;BME280;35735;52.226;21.254;2023-07-08T03:54:00;100890.87;;;13.27;100.00
44988;BME280;35735;52.226;21.254;2023-07-08T03:59:00;100889.88;;;13.56;100.00
44988;BME280;35735;52.226;21.254;2023-07-08T04:04:01;100890.47;;;14.11;100.00
44988;BME280;35735;52.226;21.254;2023-07-08T04:09:02;100882.78;;;14.70;100.00
44988;BME280;35735;52.226;21.254;2023-07-08T04:14:02;100883.03;;;15.30;100.00
44988;BME280;35735;52.226;21.254;2023-07-08T04:19:03;100879.56;;;15.89;100.00
44988;BME280;35735;52.226;21.254;2023-07-08T04:24:04;100875.91;;;16.47;100.00
44988;BME280;35735;52.226;21.254;2023-07-08T04:29:27;100872.31;;;16.97;100.00
44988;BME280;35735;52.226;21.254;2023-07-08T04:34:26;100890.75;;;17.31;100.00
44988;BME280;35735;52.226;21.254;2023-07-08T04:39:27;100891.75;;;17.69;100.00
44988;BME280;35735;52.226;21.254;2023-07-08T04:44:29;100892.62;;;18.13;100.00
44988;BME280;35735;52.226;21.254;2023-07-08T04:49:30;100881.66;;;18.50;100.00
44988;BME280;35735;52.226;21.254;2023-07-08T04:54:31;100874.28;;;18.90;99.96
44988;BME280;35735;52.226;21.254;2023-07-08T04:59:31;100876.75;;;19.32;98.54
44988;BME280;35735;52.226;21.254;2023-07-08T05:04:32;100875.50;;;19.75;97.05
44988;BME280;35735;52.226;21.254;2023-07-08T05:09:33;100887.84;;;20.18;95.37
44988;BME280;35735;52.226;21.254;2023-07-08T05:14:34;100885.47;;;20.63;93.80
44988;BME280;35735;52.226;21.254;2023-07-08T05:19:35;100882.41;;;20.99;92.14
44988;BME280;35735;52.226;21.254;2023-07-08T05:24:44;100881.97;;;21.35;91.08
44988;BME280;35735;52.226;21.254;2023-07-08T05:29:46;100878.78;;;21.72;90.08
44988;BME280;35735;52.226;21.254;2023-07-08T05:34:47;100884.37;;;22.15;89.08
44988;BME280;35735;52.226;21.254;2023-07-08T05:39:47;100874.37;;;22.58;87.99
44988;BME280;35735;52.226;21.254;2023-07-08T05:44:48;100875.25;;;23.01;86.89
44988;BME280;35735;52.226;21.254;2023-07-08T05:49:49;100878.91;;;23.43;85.63
44988;BME280;35735;52.226;21.254;2023-07-08T05:54:49;100876.91;;;23.86;84.09
44988;BME280;35735;52.226;21.254;2023-07-08T05:59:51;100872.34;;;24.23;82.30
44988;BME280;35735;52.226;21.254;2023-07-08T06:04:52;100870.59;;;24.58;80.74
44988;BME280;35735;52.226;21.254;2023-07-08T06:09:52;100867.84;;;24.93;79.87
44988;BME280;35735;52.226;21.254;2023-07-08T06:14:53;100869.16;;;25.21;78.53
44988;BME280;35735;52.226;21.254;2023-07-08T06:19:53;100871.97;;;25.55;77.08
44988;BME280;35735;52.226;21.254;2023-07-08T06:24:54;100868.25;;;25.87;76.79
44988;BME280;35735;52.226;21.254;2023-07-08T06:29:55;100871.19;;;26.18;75.17
44988;BME280;35735;52.226;21.254;2023-07-08T06:34:55;100856.31;;;26.51;73.85
44988;BME280;35735;52.226;21.254;2023-07-08T06:39:56;100856.69;;;26.76;72.04
44988;BME280;35735;52.226;21.254;2023-07-08T06:44:57;100851.56;;;26.99;71.22
44988;BME280;35735;52.226;21.254;2023-07-08T06:49:57;100860.03;;;27.26;70.27
44988;BME280;35735;52.226;21.254;2023-07-08T06:54:58;100856.84;;;27.48;68.66
44988;BME280;35735;52.226;21.254;2023-07-08T06:59:58;100848.91;;;27.71;67.04
44988;BME280;35735;52.226;21.254;2023-07-08T07:04:59;100850.75;;;27.85;65.39
44988;BME280;35735;52.226;21.254;2023-07-08T07:10:00;100845.25;;;27.99;63.06
44988;BME280;35735;52.226;21.254;2023-07-08T07:15:00;100839.00;;;28.10;62.28
44988;BME280;35735;52.226;21.254;2023-07-08T07:20:02;100831.97;;;28.32;59.26
44988;BME280;35735;52.226;21.254;2023-07-08T07:25:04;100827.69;;;28.40;59.47
44988;BME280;35735;52.226;21.254;2023-07-08T07:30:05;100843.03;;;28.73;58.62
44988;BME280;35735;52.226;21.254;2023-07-08T07:35:07;100827.88;;;29.05;58.40
44988;BME280;35735;52.226;21.254;2023-07-08T07:40:09;100825.59;;;29.37;57.26
44988;BME280;35735;52.226;21.254;2023-07-08T07:45:11;100831.34;;;29.60;56.77
44988;BME280;35735;52.226;21.254;2023-07-08T07:50:12;100834.69;;;29.90;55.35
44988;BME280;35735;52.226;21.254;2023-07-08T07:55:13;100830.84;;;30.04;54.74
44988;BME280;35735;52.226;21.254;2023-07-08T08:00:14;100820.34;;;30.21;53.53
44988;BME280;35735;52.226;21.254;2023-07-08T08:05:14;100815.44;;;30.48;52.59
44988;BME280;35735;52.226;21.254;2023-07-08T08:10:15;100815.78;;;30.68;48.53
44988;BME280;35735;52.226;21.254;2023-07-08T08:15:16;100810.09;;;30.70;48.07
44988;BME280;35735;52.226;21.254;2023-07-08T08:20:19;100814.84;;;30.92;47.33
44988;BME280;35735;52.226;21.254;2023-07-08T08:25:22;100818.97;;;31.10;47.91
44988;BME280;35735;52.226;21.254;2023-07-08T08:30:24;100813.47;;;31.33;46.26
44988;BME280;35735;52.226;21.254;2023-07-08T08:35:24;100818.25;;;31.42;44.94
44988;BME280;35735;52.226;21.254;2023-07-08T08:40:25;100826.69;;;31.65;44.62
44988;BME280;35735;52.226;21.254;2023-07-08T08:45:27;100820.09;;;31.54;42.97
44988;BME280;35735;52.226;21.254;2023-07-08T08:50:30;100823.09;;;31.40;43.34
44988;BME280;35735;52.226;21.254;2023-07-08T08:55:32;100820.28;;;31.40;43.99
44988;BME280;35735;52.226;21.254;2023-07-08T09:00:45;100818.97;;;31.10;43.25
44988;BME280;35735;52.226;21.254;2023-07-08T09:05:57;100818.34;;;30.71;42.85
44988;BME280;35735;52.226;21.254;2023-07-08T09:21:53;100819.19;;;30.36;44.69
44988;BME280;35735;52.226;21.254;2023-07-08T09:27:01;100821.28;;;30.57;43.45
44988;BME280;35735;52.226;21.254;2023-07-08T09:32:15;100813.56;;;30.84;43.42
44988;BME280;35735;52.226;21.254;2023-07-08T09:37:24;100812.44;;;31.23;43.12
44988;BME280;35735;52.226;21.254;2023-07-08T09:42:30;100816.91;;;31.48;41.47
44988;BME280;35735;52.226;21.254;2023-07-08T09:47:35;100817.03;;;31.69;41.07
44988;BME280;35735;52.226;21.254;2023-07-08T09:52:37;100822.66;;;31.57;40.59
44988;BME280;35735;52.226;21.254;2023-07-08T09:57:38;100814.97;;;31.48;41.29
44988;BME280;35735;52.226;21.254;2023-07-08T10:02:45;100811.19;;;31.61;41.41
44988;BME280;35735;52.226;21.254;2023-07-08T10:07:53;100808.41;;;31.61;41.42
44988;BME280;35735;52.226;21.254;2023-07-08T10:12:59;100803.63;;;31.63;40.67
44988;BME280;35735;52.226;21.254;2023-07-08T10:18:01;100804.00;;;31.69;39.17
44988;BME280;35735;52.226;21.254;2023-07-08T10:39:41;100790.97;;;31.12;40.46
44988;BME280;35735;52.226;21.254;2023-07-08T10:45:09;100770.84;;;31.19;38.63
44988;BME280;35735;52.226;21.254;2023-07-08T10:55:55;100767.03;;;31.09;38.15
44988;BME280;35735;52.226;21.254;2023-07-08T11:06:52;100758.66;;;30.98;39.30
44988;BME280;35735;52.226;21.254;2023-07-08T11:11:59;100750.56;;;31.29;39.29
44988;BME280;35735;52.226;21.254;2023-07-08T11:17:37;100759.94;;;31.05;38.11
44988;BME280;35735;52.226;21.254;2023-07-08T11:22:54;100743.41;;;30.91;39.26
44988;BME280;35735;52.226;21.254;2023-07-08T11:28:04;100746.44;;;30.88;37.20
44988;BME280;35735;52.226;21.254;2023-07-08T11:33:10;100729.97;;;30.84;39.94
44988;BME280;35735;52.226;21.254;2023-07-08T11:38:14;100732.56;;;31.10;38.31
44988;BME280;35735;52.226;21.254;2023-07-08T11:43:16;100744.97;;;30.95;37.30
44988;BME280;35735;52.226;21.254;2023-07-08T11:48:22;100739.56;;;30.80;38.18
44988;BME280;35735;52.226;21.254;2023-07-08T11:58:52;100719.78;;;31.08;37.17
44988;BME280;35735;52.226;21.254;2023-07-08T12:09:16;100719.91;;;31.40;37.71
44988;BME280;35735;52.226;21.254;2023-07-08T12:14:23;100726.75;;;31.36;36.41
44988;BME280;35735;52.226;21.254;2023-07-08T12:19:25;100717.88;;;31.08;37.18
44988;BME280;35735;52.226;21.254;2023-07-08T12:24:28;100713.81;;;31.01;38.16
44988;BME280;35735;52.226;21.254;2023-07-08T12:29:28;100713.31;;;30.96;37.66
44988;BME280;35735;52.226;21.254;2023-07-08T12:34:29;100710.81;;;30.69;38.41
44988;BME280;35735;52.226;21.254;2023-07-08T12:39:33;100709.09;;;30.43;39.51
44988;BME280;35735;52.226;21.254;2023-07-08T12:44:33;100710.78;;;30.33;40.21
44988;BME280;35735;52.226;21.254;2023-07-08T12:49:34;100704.66;;;30.41;39.96
44988;BME280;35735;52.226;21.254;2023-07-08T12:54:34;100700.78;;;30.55;40.63
44988;BME280;35735;52.226;21.254;2023-07-08T12:59:35;100693.97;;;30.70;40.83
44988;BME280;35735;52.226;21.254;2023-07-08T13:04:40;100703.75;;;30.76;40.27
44988;BME280;35735;52.226;21.254;2023-07-08T13:09:45;100693.47;;;30.76;39.87
44988;BME280;35735;52.226;21.254;2023-07-08T13:14:46;100687.91;;;30.76;39.60
44988;BME280;35735;52.226;21.254;2023-07-08T13:19:46;100686.88;;;30.66;39.12
44988;BME280;35735;52.226;21.254;2023-07-08T13:24:48;100680.53;;;30.53;39.97
44988;BME280;35735;52.226;21.254;2023-07-08T13:29:53;100668.47;;;30.52;40.61
44988;BME280;35735;52.226;21.254;2023-07-08T13:34:55;100661.78;;;30.55;38.64
44988;BME280;35735;52.226;21.254;2023-07-08T13:39:55;100662.03;;;30.52;39.38
44988;BME280;35735;52.226;21.254;2023-07-08T13:44:56;100671.00;;;30.55;39.40
44988;BME280;35735;52.226;21.254;2023-07-08T13:50:22;100658.75;;;30.58;39.44
44988;BME280;35735;52.226;21.254;2023-07-08T13:55:28;100666.19;;;30.46;39.08
44988;BME280;35735;52.226;21.254;2023-07-08T14:00:30;100656.78;;;30.36;40.05
44988;BME280;35735;52.226;21.254;2023-07-08T14:05:31;100652.56;;;30.30;40.61
44988;BME280;35735;52.226;21.254;2023-07-08T14:10:31;100663.19;;;30.25;40.04
44988;BME280;35735;52.226;21.254;2023-07-08T14:15:32;100649.34;;;30.12;40.22
44988;BME280;35735;52.226;21.254;2023-07-08T14:20:33;100643.53;;;30.15;39.85
44988;BME280;35735;52.226;21.254;2023-07-08T14:25:34;100632.78;;;30.22;41.00
44988;BME280;35735;52.226;21.254;2023-07-08T14:30:41;100637.88;;;30.28;40.40
44988;BME280;35735;52.226;21.254;2023-07-08T14:35:44;100632.69;;;30.23;40.11
44988;BME280;35735;52.226;21.254;2023-07-08T14:40:45;100619.00;;;30.20;40.01
44988;BME280;35735;52.226;21.254;2023-07-08T14:45:50;100623.53;;;30.10;41.06
44988;BME280;35735;52.226;21.254;2023-07-08T14:50:53;100619.47;;;30.03;40.14
44988;BME280;35735;52.226;21.254;2023-07-08T14:55:55;100616.63;;;29.91;40.01
44988;BME280;35735;52.226;21.254;2023-07-08T15:00:58;100611.91;;;29.81;40.52
44988;BME280;35735;52.226;21.254;2023-07-08T15:05:59;100608.56;;;29.75;41.09
44988;BME280;35735;52.226;21.254;2023-07-08T15:11:00;100601.56;;;29.70;40.96
44988;BME280;35735;52.226;21.254;2023-07-08T15:16:01;100597.91;;;29.69;41.42
44988;BME280;35735;52.226;21.254;2023-07-08T15:21:03;100587.91;;;29.67;40.68
44988;BME280;35735;52.226;21.254;2023-07-08T15:26:04;100598.88;;;29.57;39.55
44988;BME280;35735;52.226;21.254;2023-07-08T15:31:08;100590.25;;;29.49;40.43
44988;BME280;35735;52.226;21.254;2023-07-08T15:36:11;100592.22;;;29.47;40.96
44988;BME280;35735;52.226;21.254;2023-07-08T15:41:24;100584.69;;;29.49;40.89
44988;BME280;35735;52.226;21.254;2023-07-08T15:46:31;100593.37;;;29.44;40.77
44988;BME280;35735;52.226;21.254;2023-07-08T15:51:33;100585.59;;;29.36;40.52
44988;BME280;35735;52.226;21.254;2023-07-08T15:56:34;100571.63;;;29.25;41.05
44988;BME280;35735;52.226;21.254;2023-07-08T16:01:34;100580.13;;;29.24;40.74
44988;BME280;35735;52.226;21.254;2023-07-08T16:06:35;100578.31;;;29.10;40.21
44988;BME280;35735;52.226;21.254;2023-07-08T16:11:35;100581.81;;;29.00;40.60
44988;BME280;35735;52.226;21.254;2023-07-08T16:16:36;100588.81;;;28.93;40.43
44988;BME280;35735;52.226;21.254;2023-07-08T16:21:37;100573.59;;;28.86;41.31
44988;BME280;35735;52.226;21.254;2023-07-08T16:26:38;100567.72;;;28.78;41.59
44988;BME280;35735;52.226;21.254;2023-07-08T16:31:40;100567.31;;;28.71;41.61
44988;BME280;35735;52.226;21.254;2023-07-08T16:36:40;100570.19;;;28.70;41.67
44988;BME280;35735;52.226;21.254;2023-07-08T16:41:41;100563.66;;;28.71;42.13
44988;BME280;35735;52.226;21.254;2023-07-08T16:46:43;100558.66;;;28.63;41.64
44988;BME280;35735;52.226;21.254;2023-07-08T16:51:43;100567.53;;;28.55;42.48
44988;BME280;35735;52.226;21.254;2023-07-08T16:56:45;100557.41;;;28.41;43.05
44988;BME280;35735;52.226;21.254;2023-07-08T17:01:46;100558.53;;;28.39;43.46
44988;BME280;35735;52.226;21.254;2023-07-08T17:06:46;100553.31;;;28.34;43.76
44988;BME280;35735;52.226;21.254;2023-07-08T17:11:47;100561.97;;;28.30;44.54
44988;BME280;35735;52.226;21.254;2023-07-08T17:16:47;100550.88;;;28.17;44.79
44988;BME280;35735;52.226;21.254;2023-07-08T17:21:48;100546.63;;;28.11;45.34
44988;BME280;35735;52.226;21.254;2023-07-08T17:26:49;100553.31;;;28.08;45.90
44988;BME280;35735;52.226;21.254;2023-07-08T17:31:51;100555.19;;;27.95;46.42
44988;BME280;35735;52.226;21.254;2023-07-08T17:36:52;100557.03;;;27.95;46.94
44988;BME280;35735;52.226;21.254;2023-07-08T17:41:53;100551.50;;;27.95;47.92
44988;BME280;35735;52.226;21.254;2023-07-08T17:46:54;100562.31;;;27.85;47.96
44988;BME280;35735;52.226;21.254;2023-07-08T17:51:56;100561.53;;;27.70;47.87
44988;BME280;35735;52.226;21.254;2023-07-08T17:56:57;100554.81;;;27.60;48.04
44988;BME280;35735;52.226;21.254;2023-07-08T18:01:58;100555.37;;;27.52;48.49
44988;BME280;35735;52.226;21.254;2023-07-08T18:06:58;100555.59;;;27.49;49.24
44988;BME280;35735;52.226;21.254;2023-07-08T18:11:59;100558.75;;;27.43;51.61
44988;BME280;35735;52.226;21.254;2023-07-08T18:17:00;100553.78;;;27.35;54.23
44988;BME280;35735;52.226;21.254;2023-07-08T18:22:02;100558.53;;;27.18;55.83
44988;BME280;35735;52.226;21.254;2023-07-08T18:27:04;100560.16;;;26.94;57.08
44988;BME280;35735;52.226;21.254;2023-07-08T18:32:09;100563.75;;;26.67;59.21
44988;BME280;35735;52.226;21.254;2023-07-08T18:37:10;100561.75;;;26.40;61.08
44988;BME280;35735;52.226;21.254;2023-07-08T18:42:11;100558.38;;;26.21;61.81
44988;BME280;35735;52.226;21.254;2023-07-08T18:47:11;100569.13;;;25.97;63.52
44988;BME280;35735;52.226;21.254;2023-07-08T18:52:12;100566.06;;;25.71;65.26
44988;BME280;35735;52.226;21.254;2023-07-08T18:57:13;100569.37;;;25.46;65.84
44988;BME280;35735;52.226;21.254;2023-07-08T19:07:33;100574.12;;;24.80;69.38
44988;BME280;35735;52.226;21.254;2023-07-08T19:12:34;100580.50;;;24.47;70.20
44988;BME280;35735;52.226;21.254;2023-07-08T19:17:35;100585.44;;;24.25;71.33
44988;BME280;35735;52.226;21.254;2023-07-08T19:22:35;100592.44;;;23.97;72.37
44988;BME280;35735;52.226;21.254;2023-07-08T19:27:36;100591.03;;;23.71;72.46
44988;BME280;35735;52.226;21.254;2023-07-08T19:32:43;100591.06;;;23.52;73.28
44988;BME280;35735;52.226;21.254;2023-07-08T19:37:48;100583.59;;;23.36;74.40
44988;BME280;35735;52.226;21.254;2023-07-08T19:42:51;100586.84;;;23.08;74.72
44988;BME280;35735;52.226;21.254;2023-07-08T19:47:54;100596.41;;;22.80;75.79
44988;BME280;35735;52.226;21.254;2023-07-08T19:52:58;100596.75;;;22.53;77.30
44988;BME280;35735;52.226;21.254;2023-07-08T19:57:59;100587.66;;;22.32;78.58
44988;BME280;35735;52.226;21.254;2023-07-08T20:03:00;100592.03;;;22.16;79.46
44988;BME280;35735;52.226;21.254;2023-07-08T20:08:29;100584.56;;;21.99;80.35
44988;BME280;35735;52.226;21.254;2023-07-08T20:13:32;100590.38;;;21.71;80.70
44988;BME280;35735;52.226;21.254;2023-07-08T20:18:34;100596.87;;;21.48;81.76
44988;BME280;35735;52.226;21.254;2023-07-08T20:23:34;100598.03;;;21.18;82.36
44988;BME280;35735;52.226;21.254;2023-07-08T20:28:35;100602.97;;;21.10;83.18
44988;BME280;35735;52.226;21.254;2023-07-08T20:33:36;100610.16;;;20.90;83.68
44988;BME280;35735;52.226;21.254;2023-07-08T20:38:39;100610.66;;;20.78;84.86
44988;BME280;35735;52.226;21.254;2023-07-08T20:43:40;100616.59;;;20.66;85.68
44988;BME280;35735;52.226;21.254;2023-07-08T20:48:41;100614.69;;;20.43;86.39
44988;BME280;35735;52.226;21.254;2023-07-08T20:53:41;100612.38;;;20.32;87.05
44988;BME280;35735;52.226;21.254;2023-07-08T20:58:42;100620.88;;;20.24;87.56
44988;BME280;35735;52.226;21.254;2023-07-08T21:03:43;100618.31;;;20.20;88.09
44988;BME280;35735;52.226;21.254;2023-07-08T21:08:43;100619.66;;;20.08;88.11
44988;BME280;35735;52.226;21.254;2023-07-08T21:13:44;100630.06;;;19.98;88.70
44988;BME280;35735;52.226;21.254;2023-07-08T21:18:45;100627.59;;;19.90;88.25
44988;BME280;35735;52.226;21.254;2023-07-08T21:23:52;100628.56;;;19.88;87.36
44988;BME280;35735;52.226;21.254;2023-07-08T21:28:55;100637.53;;;19.93;87.13
44988;BME280;35735;52.226;21.254;2023-07-08T21:33:57;100637.37;;;19.97;86.80
44988;BME280;35735;52.226;21.254;2023-07-08T21:39:00;100639.94;;;20.02;86.43
44988;BME280;35735;52.226;21.254;2023-07-08T21:44:04;100644.72;;;19.97;85.96
44988;BME280;35735;52.226;21.254;2023-07-08T21:49:05;100639.44;;;19.91;86.45
44988;BME280;35735;52.226;21.254;2023-07-08T21:54:06;100643.00;;;19.93;86.15
44988;BME280;35735;52.226;21.254;2023-07-08T21:59:18;100643.91;;;19.93;85.75
44988;BME280;35735;52.226;21.254;2023-07-08T22:04:20;100640.87;;;20.01;85.67
44988;BME280;35735;52.226;21.254;2023-07-08T22:09:20;100641.81;;;20.02;85.49
44988;BME280;35735;52.226;21.254;2023-07-08T22:14:21;100641.03;;;19.98;85.68
44988;BME280;35735;52.226;21.254;2023-07-08T22:19:22;100641.09;;;19.96;85.37
44988;BME280;35735;52.226;21.254;2023-07-08T22:24:22;100644.81;;;19.94;85.25
44988;BME280;35735;52.226;21.254;2023-07-08T22:29:23;100639.59;;;19.86;85.34
44988;BME280;35735;52.226;21.254;2023-07-08T22:34:23;100646.91;;;19.86;85.45
44988;BME280;35735;52.226;21.254;2023-07-08T22:39:24;100642.62;;;19.78;86.16
44988;BME280;35735;52.226;21.254;2023-07-08T22:44:25;100649.31;;;19.68;86.77
44988;BME280;35735;52.226;21.254;2023-07-08T22:49:25;100646.16;;;19.54;87.49
44988;BME280;35735;52.226;21.254;2023-07-08T22:54:26;100644.03;;;19.35;87.96
44988;BME280;35735;52.226;21.254;2023-07-08T22:59:27;100645.47;;;19.19;88.56
44988;BME280;35735;52.226;21.254;2023-07-08T23:04:27;100638.62;;;19.04;89.05
44988;BME280;35735;52.226;21.254;2023-07-08T23:09:28;100639.12;;;18.88;89.78
44988;BME280;35735;52.226;21.254;2023-07-08T23:14:28;100639.53;;;18.75;90.30
44988;BME280;35735;52.226;21.254;2023-07-08T23:19:29;100647.22;;;18.60;90.72
44988;BME280;35735;52.226;21.254;2023-07-08T23:24:30;100647.59;;;18.48;91.21
44988;BME280;35735;52.226;21.254;2023-07-08T23:29:31;100647.78;;;18.42;91.67
44988;BME280;35735;52.226;21.254;2023-07-08T23:34:31;100651.06;;;18.22;92.11
44988;BME280;35735;52.226;21.254;2023-07-08T23:39:32;100647.56;;;18.17;92.60
44988;BME280;35735;52.226;21.254;2023-07-08T23:44:33;100644.88;;;18.15;92.62
44988;BME280;35735;52.226;21.254;2023-07-08T23:49:35;100645.09;;;18.07;92.78
44988;BME280;35735;52.226;21.254;2023-07-08T23:54:36;100652.38;;;18.07;92.65
44988;BME280;35735;52.226;21.254;2023-07-08T23:59:43;100641.53;;;18.04;92.73
